Etusivu
METAR-TAF:

METAR-TAF

Lentoasemat :

Plainview, Texas, Yhdysvallat

Leveyspiiri: 34-10-05N, Pituuspiiri: 101-43-02W, korkeus merenpinnasta: 1028 m

Tämänhetkinen sää

Tämä raportti tehtiin 35 minuuttia sitten, kello 20.35 UTC
Tuuli 12 kn lännestä/lounaasta puuskistuen 17 kn:hen
Lämpötila 32°C
Kosteus 34%
Ilmanpaine 1019 hPa
Näkyvyys: 16.1 km
selkeää

METAR: KPVW 222035Z AUTO 24012G17KT 10SM CLR 32/14 A3008 RMK AO2 T03180136

Aika: 16:10 (21:10 UTC)

Sääennuste

Tämä raportti tehtiin 3 tuntia ja 42 minuuttia sitten, kello 17.28 UTC
Ennuste voimassa 22. päivästä klo 18 UTC - 23. päivään klo 18 UTC
Tuuli 15 kn lounaasta
Näkyvyys: 10 km
Muutamia pilviä 25000 ft:n korkeudessa
From 23. päivästä klo 0100 UTC
Tuuli 11 kn etelästä
Näkyvyys: 10 km
Muutamia pilviä 25000 ft:n korkeudessa

TAF: KPVW 221728Z 2218/2318 23015KT P6SM FEW250 FM230100 18011KT P6SM FEW250

Säähavainnot ja -ennusteet yli 4000 lentoasemalta (METAR- ja TAF-raportit).

Käytössä olevat sääasemat on merkitty karttaan keltaisilla ja punaisilla pisteillä.

Aseta hiiri pisteen päälle nähdäksesi sääaseman nimen.

Klikkaa sitten nähdäksesi säähavainnot ja -ennusteet.

Kartan vaihtaminen: klikkaa mustalla rastilla varustettuja vihreitä pisteitä, niin voit zoomata sisään; viivalla varustettua vihreää pistettä, niin voit zoomata ulos tai vihreitä nuolia, niin pääset viereisille kartoille.


METAR-TAF: